Map

Track Data

SID SEASON NUMBER BASIN SUBBASIN NAME ISO_TIME NATURE LAT LON WMO_WIND WMO_PRES WMO_AGENCY TRACK_TYPE DIST2LAND LANDFALL IFLAG USA_AGENCY USA_ATCF_ID USA_LAT USA_LON USA_RECORD USA_STATUS USA_WIND USA_PRES USA_SSHS USA_R34_NE USA_R34_SE USA_R34_SW USA_R34_NW USA_R50_NE USA_R50_SE USA_R50_SW USA_R50_NW USA_R64_NE USA_R64_SE USA_R64_SW USA_R64_NW USA_POCI USA_ROCI USA_RMW USA_EYE TOKYO_LAT TOKYO_LON TOKYO_GRADE TOKYO_WIND TOKYO_PRES TOKYO_R50_DIR TOKYO_R50_LONG TOKYO_R50_SHORT TOKYO_R30_DIR TOKYO_R30_LONG TOKYO_R30_SHORT TOKYO_LAND CMA_LAT CMA_LON CMA_CAT CMA_WIND CMA_PRES HKO_LAT HKO_LON HKO_CAT HKO_WIND HKO_PRES NEWDELHI_LAT NEWDELHI_LON NEWDELHI_GRADE NEWDELHI_WIND NEWDELHI_PRES NEWDELHI_CI NEWDELHI_DP NEWDELHI_POCI REUNION_LAT REUNION_LON REUNION_TYPE REUNION_WIND REUNION_PRES REUNION_TNUM REUNION_CI REUNION_RMW REUNION_R34_NE REUNION_R34_SE REUNION_R34_SW REUNION_R34_NW REUNION_R50_NE REUNION_R50_SE REUNION_R50_SW REUNION_R50_NW REUNION_R64_NE REUNION_R64_SE REUNION_R64_SW REUNION_R64_NW BOM_LAT BOM_LON BOM_TYPE BOM_WIND BOM_PRES BOM_TNUM BOM_CI BOM_RMW BOM_R34_NE BOM_R34_SE BOM_R34_SW BOM_R34_NW BOM_R50_NE BOM_R50_SE BOM_R50_SW BOM_R50_NW BOM_R64_NE BOM_R64_SE BOM_R64_SW BOM_R64_NW BOM_ROCI BOM_POCI BOM_EYE BOM_POS_METHOD BOM_PRES_METHOD NADI_LAT NADI_LON NADI_CAT NADI_WIND NADI_PRES WELLINGTON_LAT WELLINGTON_LON WELLINGTON_WIND WELLINGTON_PRES DS824_LAT DS824_LON DS824_STAGE DS824_WIND DS824_PRES TD9636_LAT TD9636_LON TD9636_STAGE TD9636_WIND TD9636_PRES TD9635_LAT TD9635_LON TD9635_WIND TD9635_PRES TD9635_ROCI NEUMANN_LAT NEUMANN_LON NEUMANN_CLASS NEUMANN_WIND NEUMANN_PRES MLC_LAT MLC_LON MLC_CLASS MLC_WIND MLC_PRES USA_GUST BOM_GUST BOM_GUST_PER REUNION_GUST REUNION_GUST_PER USA_SEAHGT USA_SEARAD_NE USA_SEARAD_SE USA_SEARAD_SW USA_SEARAD_NW STORM_SPEED STORM_DIR
1970271N10132 1970 122 WP MM NOT_NAMED 1970-09-27 12:00:00 TS 10.0000 132.000 main 640 596 __O___________ -1 10.0000 132.000 0 1008 13 311
1970271N10132 1970 122 WP MM NOT_NAMED 1970-09-27 15:00:00 TS 10.4276 131.503 main 596 555 __P___________ -1 10.4276 131.503 0 1008 13 309
1970271N10132 1970 122 WP MM NOT_NAMED 1970-09-27 18:00:00 TS 10.8000 131.000 main 555 513 __O___________ -1 10.8000 131.000 0 1008 12 304
1970271N10132 1970 122 WP MM NOT_NAMED 1970-09-27 21:00:00 TS 11.0925 130.492 main 513 460 __P___________ -1 11.0925 130.492 0 1007 12 301
1970271N10132 1970 122 WP MM NOT_NAMED 1970-09-28 00:00:00 TS 11.4000 130.000 main 460 421 __O___________ -1 11.4000 130.000 0 1007 12 308
1970271N10132 1970 122 WP MM NOT_NAMED 1970-09-28 03:00:00 TS 11.8275 129.528 main 413 383 __P___________ -1 11.8275 129.528 0 1005 13 316
1970271N10132 1970 122 WP MM NOT_NAMED 1970-09-28 06:00:00 TS 12.3000 129.100 main 387 352 __O___________ -1 12.3000 129.100 0 19 1003 12 320
1970271N10132 1970 122 WP MM NOT_NAMED 1970-09-28 09:00:00 TS 12.7649 128.720 main 354 330 __P___________ -1 12.7649 128.720 0 21 1003 11 323
1970271N10132 1970 122 WP MM NOT_NAMED 1970-09-28 12:00:00 TS 13.2000 128.400 main 334 327 __O___________ -1 13.2000 128.400 1 23 1003 10 327
1970271N10132 1970 122 WP MM NOT_NAMED 1970-09-28 15:00:00 TS 13.5722 128.180 main 332 322 __P___________ -1 13.5722 128.180 1 26 1003 9 325
1970271N10132 1970 122 WP MM NOT_NAMED 1970-09-28 18:00:00 TS 13.9000 127.900 main 322 303 __O___________ -1 13.9000 127.900 1 29 1003 10 310
1970271N10132 1970 122 WP MM NOT_NAMED 1970-09-28 21:00:00 TS 14.2001 127.402 main 303 267 __P___________ -1 14.2001 127.402 1 29 1003 12 299
1970271N10132 1970 122 WP MM NOT_NAMED 1970-09-29 00:00:00 TS 14.5000 126.800 main 267 228 __O___________ -1 14.5000 126.800 1 29 1003 13 300
1970271N10132 1970 122 WP MM NOT_NAMED 1970-09-29 03:00:00 TS 14.8496 126.237 main 218 193 __P___________ -1 14.8496 126.237 1 29 1003 14 301
1970271N10132 1970 122 WP MM NOT_NAMED 1970-09-29 06:00:00 TS 15.2000 125.600 main 193 173 __O___________ -1 15.2000 125.600 1 29 1003 15 295
1970271N10132 1970 122 WP MM NOT_NAMED 1970-09-29 09:00:00 TS 15.4924 124.837 main 176 173 __P___________ -1 15.4924 124.837 1 29 1003 17 291
1970271N10132 1970 122 WP MM NOT_NAMED 1970-09-29 12:00:00 TS 15.8000 124.000 main 197 105 __O___________ -1 15.8000 124.000 1 29 1003 18 294
1970271N10132 1970 122 WP MM NOT_NAMED 1970-09-29 15:00:00 TS 16.2298 123.151 main 105 0 __P___________ -1 16.2298 123.151 1 26 1003 18 296
1970271N10132 1970 122 WP MM NOT_NAMED 1970-09-29 18:00:00 TS 16.6000 122.300 main 0 0 __O___________ -1 16.6000 122.300 1 23 1003 17 289
1970271N10132 1970 122 WP MM NOT_NAMED 1970-09-29 21:00:00 TS 16.7822 121.485 main 0 0 __P___________ -1 16.7822 121.485 1 23 1004 15 277
1970271N10132 1970 122 WP MM NOT_NAMED 1970-09-30 00:00:00 TS 16.8000 120.700 main 0 0 __O___________ -1 16.8000 120.700 1 23 1005 15 267
1970271N10132 1970 122 WP MM NOT_NAMED 1970-09-30 03:00:00 TS 16.7099 119.912 main 44 39 __P___________ -1 16.7099 119.912 1 23 1005 15 258
1970271N10132 1970 122 WP MM NOT_NAMED 1970-09-30 06:00:00 TS 16.5000 119.200 main 67 67 __O___________ -1 16.5000 119.200 1 23 1005 14 249
1970271N10132 1970 122 WP MM NOT_NAMED 1970-09-30 09:00:00 TS 16.2222 118.597 main 119 119 __P___________ -1 16.2222 118.597 1 23 1005 12 240
1970271N10132 1970 122 WP MM NOT_NAMED 1970-09-30 12:00:00 TS 15.9000 118.100 main 171 171 __O___________ -1 15.9000 118.100 1 23 1005 11 235
1970271N10132 1970 122 WP MM NOT_NAMED 1970-09-30 15:00:00 TS 15.5998 117.678 main 218 218 __P___________ -1 15.5998 117.678 1 23 1005 10 232
1970271N10132 1970 122 WP MM NOT_NAMED 1970-09-30 18:00:00 TS 15.3000 117.300 main 268 268 __O___________ -1 15.3000 117.300 1 23 1005 10 230
1970271N10132 1970 122 WP MM NOT_NAMED 1970-09-30 21:00:00 TS 14.9774 116.900 main 320 320 __P___________ -1 14.9774 116.900 1 23 1005 10 232
1970271N10132 1970 122 WP MM NOT_NAMED 1970-10-01 00:00:00 TS 14.7000 116.500 main 372 372 __O___________ -1 14.7000 116.500 1 23 1005 9 238
1970271N10132 1970 122 WP MM NOT_NAMED 1970-10-01 03:00:00 TS 14.5049 116.108 main 420 420 __P___________ -1 14.5049 116.108 1 23 1005 8 249
1970271N10132 1970 122 WP MM NOT_NAMED 1970-10-01 06:00:00 TS 14.4000 115.700 main 465 465 __O___________ -1 14.4000 115.700 1 23 1005 8 260
1970271N10132 1970 122 WP MM NOT_NAMED 1970-10-01 09:00:00 TS 14.3550 115.257 main 505 505 __P___________ -1 14.3550 115.257 1 23 1005 9 270
1970271N10132 1970 122 WP MM NOT_NAMED 1970-10-01 12:00:00 TS 14.4000 114.800 main 555 554 __O___________ -1 14.4000 114.800 1 23 1005 9 281
1970271N10132 1970 122 WP MM NOT_NAMED 1970-10-01 15:00:00 TS 14.5275 114.328 main 543 503 __P___________ -1 14.5275 114.328 1 21 1006 9 289
1970271N10132 1970 122 WP MM NOT_NAMED 1970-10-01 18:00:00 TS 14.7000 113.900 main 503 474 __O___________ -1 14.7000 113.900 0 19 1007 7 294
1970271N10132 1970 122 WP MM NOT_NAMED 1970-10-01 21:00:00 TS 14.8271 113.622 main 474 448 __P___________ -1 14.8271 113.622 0 19 1007 7 297
1970271N10132 1970 122 WP MM NOT_NAMED 1970-10-02 00:00:00 TS 15.0000 113.300 main 448 401 __O___________ -1 15.0000 113.300 0 19 1007 9 295
1970271N10132 1970 122 WP MM NOT_NAMED 1970-10-02 03:00:00 TS 15.2252 112.737 main 390 337 __P___________ -1 15.2252 112.737 0 19 1007 13 297
1970271N10132 1970 122 WP MM NOT_NAMED 1970-10-02 06:00:00 TS 15.6000 112.100 main 337 283 __O___________ -1 15.6000 112.100 0 19 1008 17 313
1970271N10132 1970 122 WP MM NOT_NAMED 1970-10-02 09:00:00 TS 16.3702 111.469 main 274 198 __P___________ -1 16.3702 111.469 0 19 1008 17 321
1970271N10132 1970 122 WP MM NOT_NAMED 1970-10-02 12:00:00 TS 16.9000 111.000 main 198 193 __O___________ -1 16.9000 111.000 0 19 1008 7 295
1970271N10132 1970 122 WP MM NOT_NAMED 1970-10-02 15:00:00 TS 16.6474 110.852 main 219 219 __P___________ -1 16.6474 110.852 0 19 1008 10 186
1970271N10132 1970 122 WP MM NOT_NAMED 1970-10-02 18:00:00 TS 15.9000 110.900 main 228 __O___________ -1 15.9000 110.900 0 19 1008 15 177

Digital Typhoon Data and Search

About IBTrACS Database

This database is a web-friendly format of International Best Track Archive for Climate Stewardship (IBTrACS), a global best track data archive curated by NOAA dating back to 1842.

Updated: 2021-11-26